Time;durP1;ratioP1;P1;durP2;ratioP2;P2;SDS_P1;SDS_P2;PMS_P1;PMS_P2;Temp;Humidity;BMP_temperature;BMP_pressure;BME280_temperature;BME280_humidity;BME280_pressure;Samples;Min_cycle;Max_cycle;Signal;HPM_P1;HPM_P2
2023/09/07 00:00:36;;;;;;;5.83;5.20;;;;;;;;;;5016259;28;20230;-88
2023/09/07 00:03:04;;;;;;;7.30;5.20;;;;;;;;;;5032680;28;20188;-88
2023/09/07 00:05:30;;;;;;;7.88;5.50;;;;;;;;;;5032997;28;20412;-88
2023/09/07 00:07:57;;;;;;;5.50;5.00;;;;;;;;;;5032414;28;20196;-88
2023/09/07 00:10:23;;;;;;;8.20;5.20;;;;;;;;;;5027987;28;20236;-88
2023/09/07 00:12:51;;;;;;;7.07;5.27;;;;;;;;;;5015797;28;20311;-87
2023/09/07 00:15:19;;;;;;;8.48;5.25;;;;;;;;;;5016001;28;20173;-87
2023/09/07 00:17:51;;;;;;;6.37;5.77;;;;;;;;;;5016265;28;20185;-88
2023/09/07 00:20:19;;;;;;;6.78;5.78;;;;;;;;;;5015082;28;20414;-88
2023/09/07 00:22:47;;;;;;;6.70;6.03;;;;;;;;;;5016212;28;20417;-88
2023/09/07 00:25:13;;;;;;;6.70;6.00;;;;;;;;;;5019834;28;20468;-88
2023/09/07 00:27:40;;;;;;;6.80;6.15;;;;;;;;;;5019706;28;20422;-87
2023/09/07 00:30:09;;;;;;;8.27;5.73;;;;;;;;;;5004080;28;20188;-87
2023/09/07 00:32:39;;;;;;;7.33;5.50;;;;;;;;;;5020059;28;20215;-88
2023/09/07 00:35:07;;;;;;;6.50;5.75;;;;;;;;;;5020009;28;20175;-87
2023/09/07 00:37:34;;;;;;;10.07;6.28;;;;;;;;;;5019704;28;20203;-88
2023/09/07 00:40:00;;;;;;;6.57;5.90;;;;;;;;;;5019658;28;20255;-85
2023/09/07 00:42:28;;;;;;;7.00;5.70;;;;;;;;;;5003206;28;20181;-85
2023/09/07 00:44:54;;;;;;;8.40;5.67;;;;;;;;;;5019635;28;20177;-84
2023/09/07 00:47:20;;;;;;;7.93;5.47;;;;;;;;;;5002832;28;20192;-85
2023/09/07 00:49:46;;;;;;;6.13;5.53;;;;;;;;;;5019123;28;20176;-84
2023/09/07 00:52:15;;;;;;;6.87;6.23;;;;;;;;;;5019187;28;20215;-85
2023/09/07 00:54:42;;;;;;;14.07;11.23;;;;;;;;;;5018948;28;20183;-85
2023/09/07 00:57:08;;;;;;;13.10;10.70;;;;;;;;;;5018809;28;20203;-85
2023/09/07 00:59:37;;;;;;;10.40;7.77;;;;;;;;;;5022269;28;20189;-85
2023/09/07 01:02:05;;;;;;;9.00;6.88;;;;;;;;;;5010251;28;20422;-85
2023/09/07 01:04:33;;;;;;;8.37;6.97;;;;;;;;;;5033959;28;20185;-85
2023/09/07 01:07:18;;;;;;;8.53;6.93;;;;;;;;;;5018561;28;20273;-84
2023/09/07 01:09:49;;;;;;;7.83;7.03;;;;;;;;;;5009651;28;20189;-85
2023/09/07 01:12:16;;;;;;;8.10;6.60;;;;;;;;;;5025533;28;20201;-85
2023/09/07 01:14:44;;;;;;;7.03;6.17;;;;;;;;;;5025758;28;20181;-85
2023/09/07 01:17:11;;;;;;;6.57;5.73;;;;;;;;;;5024834;28;20226;-85
2023/09/07 01:19:37;;;;;;;8.50;6.37;;;;;;;;;;5019850;28;20211;-85
2023/09/07 01:22:06;;;;;;;7.20;6.13;;;;;;;;;;5013217;28;20193;-85
2023/09/07 01:24:35;;;;;;;6.60;5.90;;;;;;;;;;4983725;28;20235;-85
2023/09/07 01:27:04;;;;;;;7.93;6.30;;;;;;;;;;5018436;28;20200;-85
2023/09/07 01:29:30;;;;;;;8.97;6.40;;;;;;;;;;5028471;28;20180;-85
2023/09/07 01:31:57;;;;;;;8.97;6.33;;;;;;;;;;5018114;28;20203;-85
2023/09/07 01:34:23;;;;;;;6.83;6.13;;;;;;;;;;5010889;28;20176;-85
2023/09/07 01:36:52;;;;;;;7.70;6.37;;;;;;;;;;5001848;28;20276;-85
2023/09/07 01:39:18;;;;;;;8.20;5.80;;;;;;;;;;5008292;28;20189;-85
2023/09/07 01:41:44;;;;;;;7.03;5.83;;;;;;;;;;5027414;28;20188;-85
2023/09/07 01:44:13;;;;;;;6.77;6.17;;;;;;;;;;5001768;28;20180;-85
2023/09/07 01:46:39;;;;;;;6.90;5.87;;;;;;;;;;5026968;28;20194;-85
2023/09/07 01:49:10;;;;;;;7.90;6.37;;;;;;;;;;5011864;28;20189;-85
2023/09/07 01:51:37;;;;;;;7.17;6.43;;;;;;;;;;5030469;28;20214;-85
2023/09/07 01:54:03;;;;;;;8.03;6.60;;;;;;;;;;5010630;28;20275;-85
2023/09/07 01:56:30;;;;;;;6.87;6.17;;;;;;;;;;5016828;28;20181;-85
2023/09/07 01:58:56;;;;;;;6.77;6.13;;;;;;;;;;5010679;28;20325;-85
2023/09/07 02:01:26;;;;;;;10.63;6.90;;;;;;;;;;5013590;28;20223;-84
2023/09/07 02:03:55;;;;;;;7.27;6.57;;;;;;;;;;5013455;28;20200;-85
2023/09/07 02:06:21;;;;;;;7.47;6.60;;;;;;;;;;5013426;28;20213;-89
2023/09/07 02:08:48;;;;;;;6.80;6.20;;;;;;;;;;5012892;28;20191;-88
2023/09/07 02:11:17;;;;;;;7.82;6.70;;;;;;;;;;5012601;28;20448;-88
2023/09/07 02:13:44;;;;;;;7.93;6.27;;;;;;;;;;5013693;28;20185;-88
2023/09/07 02:16:10;;;;;;;7.77;7.00;;;;;;;;;;5013484;28;20185;-88
2023/09/07 02:18:43;;;;;;;8.50;6.10;;;;;;;;;;5012054;28;20264;-88
2023/09/07 02:21:09;;;;;;;7.70;6.53;;;;;;;;;;5012966;28;20185;-88
2023/09/07 02:23:38;;;;;;;7.40;6.67;;;;;;;;;;5013417;28;20181;-88
2023/09/07 02:26:04;;;;;;;7.70;6.63;;;;;;;;;;5002522;28;20186;-88
2023/09/07 02:28:31;;;;;;;6.90;6.30;;;;;;;;;;5007965;28;20181;-87
2023/09/07 02:31:03;;;;;;;9.60;6.60;;;;;;;;;;5012586;28;20385;-88
2023/09/07 02:33:29;;;;;;;9.13;6.43;;;;;;;;;;5012825;28;20243;-88
2023/09/07 02:35:57;;;;;;;7.53;6.53;;;;;;;;;;5012992;28;20185;-87
2023/09/07 02:38:23;;;;;;;7.63;6.60;;;;;;;;;;5012999;28;20243;-87
2023/09/07 02:40:49;;;;;;;8.65;7.38;;;;;;;;;;5012495;28;20430;-87
2023/09/07 02:43:16;;;;;;;8.68;7.82;;;;;;;;;;5010908;28;20419;-87
2023/09/07 02:45:44;;;;;;;7.43;6.77;;;;;;;;;;5011871;28;20268;-88
2023/09/07 02:48:10;;;;;;;7.85;7.25;;;;;;;;;;5011053;28;20485;-88
2023/09/07 02:50:36;;;;;;;7.77;6.87;;;;;;;;;;5011917;28;20169;-87
2023/09/07 02:53:05;;;;;;;8.00;7.20;;;;;;;;;;5010235;28;20209;-88
2023/09/07 02:55:31;;;;;;;7.47;6.73;;;;;;;;;;5011556;28;20182;-88
2023/09/07 02:57:59;;;;;;;6.97;6.43;;;;;;;;;;5016894;28;20235;-87
2023/09/07 03:00:28;;;;;;;9.07;7.70;;;;;;;;;;5025807;28;20267;-88
2023/09/07 03:02:54;;;;;;;7.47;6.77;;;;;;;;;;5019246;28;20189;-88
2023/09/07 03:05:20;;;;;;;8.20;7.50;;;;;;;;;;5017109;28;20430;-88
2023/09/07 03:07:49;;;;;;;7.97;7.17;;;;;;;;;;5031831;28;20215;-87
2023/09/07 03:10:16;;;;;;;8.02;7.22;;;;;;;;;;5032755;28;20331;-88
2023/09/07 03:12:42;;;;;;;8.17;7.40;;;;;;;;;;5024644;28;20209;-87
2023/09/07 03:15:08;;;;;;;10.13;6.73;;;;;;;;;;5026572;28;20271;-89
2023/09/07 03:17:37;;;;;;;7.70;7.00;;;;;;;;;;5042908;28;20220;-87
2023/09/07 03:20:13;;;;;;;7.77;7.03;;;;;;;;;;5012832;28;20196;-88
2023/09/07 03:22:39;;;;;;;8.67;7.87;;;;;;;;;;5026721;28;20199;-87
2023/09/07 03:25:05;;;;;;;9.70;8.10;;;;;;;;;;5020505;28;20193;-87
2023/09/07 03:27:34;;;;;;;9.13;8.23;;;;;;;;;;5029879;28;20184;-88
2023/09/07 03:30:00;;;;;;;9.70;8.80;;;;;;;;;;5024369;28;20423;-88
2023/09/07 03:32:31;;;;;;;8.53;7.80;;;;;;;;;;5019812;28;20196;-87
2023/09/07 03:34:57;;;;;;;8.83;7.60;;;;;;;;;;5031008;28;20192;-88
2023/09/07 03:37:23;;;;;;;8.23;7.47;;;;;;;;;;5029747;28;20177;-88
2023/09/07 03:39:53;;;;;;;8.50;7.80;;;;;;;;;;5015722;28;20185;-88
2023/09/07 03:42:19;;;;;;;8.87;7.97;;;;;;;;;;5027091;28;20234;-88
2023/09/07 03:44:45;;;;;;;8.77;7.90;;;;;;;;;;5028881;28;20235;-88
2023/09/07 03:47:11;;;;;;;8.17;7.37;;;;;;;;;;5023047;28;20180;-88
2023/09/07 03:49:39;;;;;;;8.13;7.33;;;;;;;;;;5026578;28;20217;-89
2023/09/07 03:52:06;;;;;;;9.43;7.67;;;;;;;;;;5016024;28;20244;-88
2023/09/07 03:54:32;;;;;;;10.17;7.40;;;;;;;;;;5011562;28;20181;-88
2023/09/07 03:57:02;;;;;;;9.13;7.40;;;;;;;;;;5010343;28;20202;-88
2023/09/07 03:59:28;;;;;;;9.47;7.20;;;;;;;;;;5008943;28;20228;-89
2023/09/07 04:01:55;;;;;;;9.20;6.97;;;;;;;;;;5009325;28;20221;-88
2023/09/07 04:04:23;;;;;;;8.57;7.75;;;;;;;;;;4997347;28;20423;-88
2023/09/07 04:06:49;;;;;;;8.00;7.23;;;;;;;;;;5016456;28;20239;-88
2023/09/07 04:09:15;;;;;;;8.40;7.53;;;;;;;;;;5000859;28;20261;-88
2023/09/07 04:11:41;;;;;;;7.83;7.03;;;;;;;;;;5016629;28;20291;-88
2023/09/07 04:14:07;;;;;;;8.50;7.03;;;;;;;;;;5016507;28;20177;-89
2023/09/07 04:16:36;;;;;;;8.20;7.47;;;;;;;;;;5011909;28;20186;-88
2023/09/07 04:19:03;;;;;;;6.87;6.27;;;;;;;;;;5025453;28;20252;-89
2023/09/07 04:21:29;;;;;;;7.97;7.17;;;;;;;;;;5016589;28;20190;-89
2023/09/07 04:23:55;;;;;;;7.80;7.00;;;;;;;;;;5015989;28;20324;-88
2023/09/07 04:26:21;;;;;;;7.93;7.13;;;;;;;;;;5015435;28;20200;-88
2023/09/07 04:28:47;;;;;;;8.80;7.90;;;;;;;;;;5016305;28;20454;-88
2023/09/07 04:31:18;;;;;;;8.00;7.20;;;;;;;;;;5015102;28;20217;-89
2023/09/07 04:33:44;;;;;;;7.87;7.17;;;;;;;;;;5015953;28;20181;-88
2023/09/07 04:36:14;;;;;;;10.77;8.50;;;;;;;;;;5015931;28;20209;-89
2023/09/07 04:38:41;;;;;;;8.87;7.40;;;;;;;;;;5015955;28;20185;-89
2023/09/07 04:41:12;;;;;;;7.33;6.73;;;;;;;;;;5016130;28;20185;-88
2023/09/07 04:43:40;;;;;;;8.83;8.07;;;;;;;;;;5015829;28;20196;-89
2023/09/07 04:46:06;;;;;;;8.17;7.37;;;;;;;;;;4999956;28;20185;-88
2023/09/07 04:48:35;;;;;;;8.27;7.47;;;;;;;;;;5016547;28;20181;-89
2023/09/07 04:51:06;;;;;;;9.00;8.10;;;;;;;;;;5015808;28;20216;-88
2023/09/07 04:53:35;;;;;;;8.63;7.87;;;;;;;;;;5015408;28;20193;-88
2023/09/07 04:56:02;;;;;;;12.87;9.20;;;;;;;;;;5015641;28;20173;-89
2023/09/07 04:58:28;;;;;;;8.83;7.90;;;;;;;;;;5015921;28;20227;-89
2023/09/07 05:00:54;;;;;;;10.10;9.05;;;;;;;;;;5015934;28;20435;-88
2023/09/07 05:03:20;;;;;;;9.63;8.70;;;;;;;;;;5015710;28;20181;-88
2023/09/07 05:05:54;;;;;;;9.20;8.33;;;;;;;;;;5003462;28;20177;-88
2023/09/07 05:08:22;;;;;;;10.57;8.80;;;;;;;;;;5035036;28;20172;-88
2023/09/07 05:10:48;;;;;;;9.63;8.83;;;;;;;;;;5034121;28;20263;-89
2023/09/07 05:13:17;;;;;;;10.27;9.37;;;;;;;;;;5015698;28;20184;-89
2023/09/07 05:15:52;;;;;;;10.93;8.83;;;;;;;;;;5015741;28;20177;-88
2023/09/07 05:18:18;;;;;;;10.77;8.67;;;;;;;;;;4999020;28;20200;-88
2023/09/07 05:20:45;;;;;;;11.47;9.23;;;;;;;;;;4996897;28;20261;-89
2023/09/07 05:23:15;;;;;;;10.43;9.33;;;;;;;;;;5017566;28;20188;-90
2023/09/07 05:25:52;;;;;;;9.97;9.00;;;;;;;;;;5016121;28;20173;-89
2023/09/07 05:28:18;;;;;;;14.53;9.63;;;;;;;;;;5015686;28;20181;-90
2023/09/07 05:30:47;;;;;;;12.73;9.27;;;;;;;;;;5015350;28;20183;-89
2023/09/07 05:33:15;;;;;;;12.60;9.33;;;;;;;;;;5009453;28;20197;-92
2023/09/07 05:35:42;;;;;;;11.73;9.57;;;;;;;;;;5033382;28;20216;-91
2023/09/07 05:38:11;;;;;;;10.73;9.73;;;;;;;;;;5034894;28;20184;-91
2023/09/07 05:40:39;;;;;;;12.50;9.77;;;;;;;;;;5035036;28;20181;-90
2023/09/07 05:43:10;;;;;;;10.70;9.57;;;;;;;;;;5034686;28;20177;-90
2023/09/07 05:45:44;;;;;;;10.53;9.50;;;;;;;;;;5013145;28;20185;-93
2023/09/07 05:48:10;;;;;;;12.53;9.70;;;;;;;;;;5015072;28;20178;-93
2023/09/07 05:50:44;;;;;;;11.93;9.73;;;;;;;;;;5015558;28;20180;-93
2023/09/07 05:53:14;;;;;;;10.67;9.53;;;;;;;;;;4996469;28;20245;-93
2023/09/07 05:56:22;;;;;;;;;;;;;;;;;;;;;
2023/09/07 06:02:40;;;;;;;10.30;9.30;;;;;;;;;;5023785;28;20235;-90
2023/09/07 06:05:28;;;;;;;14.17;9.67;;;;;;;;;;5034873;28;20189;-92
2023/09/07 06:07:54;;;;;;;12.13;10.00;;;;;;;;;;5018906;28;20185;-90
2023/09/07 06:10:20;;;;;;;11.00;9.77;;;;;;;;;;5022773;28;20215;-89
2023/09/07 06:12:49;;;;;;;13.57;10.43;;;;;;;;;;5001837;28;20221;-89
2023/09/07 06:15:16;;;;;;;11.00;9.87;;;;;;;;;;5017927;28;20181;-90
2023/09/07 06:17:53;;;;;;;11.07;10.07;;;;;;;;;;5017964;28;20271;-91
2023/09/07 06:20:25;;;;;;;11.03;9.90;;;;;;;;;;5023006;28;20191;-92
2023/09/07 06:23:12;;;;;;;14.63;10.03;;;;;;;;;;5033463;28;20189;-88
2023/09/07 06:25:56;;;;;;;11.73;10.43;;;;;;;;;;5017886;28;20181;-88
2023/09/07 06:28:22;;;;;;;11.37;10.17;;;;;;;;;;5009620;28;20196;-88
2023/09/07 06:30:48;;;;;;;11.70;10.50;;;;;;;;;;5000700;28;20189;-87
2023/09/07 06:33:19;;;;;;;11.17;10.17;;;;;;;;;;5029831;28;20177;-88
2023/09/07 06:36:04;;;;;;;;;;;;;;;;;;;;;
2023/09/07 06:38:42;;;;;;;11.20;10.10;;;;;;;;;;5024259;28;20181;-88
2023/09/07 06:41:09;;;;;;;11.93;10.70;;;;;;;;;;4983775;28;20279;-87
2023/09/07 06:43:36;;;;;;;11.43;10.27;;;;;;;;;;5022791;28;20254;-89
2023/09/07 06:46:09;;;;;;;11.07;9.17;;;;;;;;;;5015431;28;20256;-88
2023/09/07 06:48:38;;;;;;;10.67;8.93;;;;;;;;;;5005921;28;20189;-87
2023/09/07 06:51:27;;;;;;;12.47;10.60;;;;;;;;;;5014930;28;20187;-88
2023/09/07 06:54:09;;;;;;;11.70;10.03;;;;;;;;;;5016136;28;20189;-88
2023/09/07 07:02:28;;;;;;;11.80;10.80;;;;;;;;;;5023827;28;20256;-87
2023/09/07 07:04:54;;;;;;;11.33;10.23;;;;;;;;;;5032200;28;20311;-87
2023/09/07 07:07:23;;;;;;;11.13;10.10;;;;;;;;;;5019678;28;20189;-91
2023/09/07 07:09:49;;;;;;;11.90;10.80;;;;;;;;;;4997914;28;20207;-90
2023/09/07 07:12:34;;;;;;;;;;;;;;;;;;;;;
2023/09/07 07:15:03;;;;;;;11.63;10.40;;;;;;;;;;5033499;28;20199;-91
2023/09/07 07:17:38;;;;;;;12.93;11.10;;;;;;;;;;5014723;28;20184;-91
2023/09/07 07:20:07;;;;;;;11.87;10.67;;;;;;;;;;4985432;28;20190;-90
2023/09/07 07:22:35;;;;;;;11.90;10.80;;;;;;;;;;5015327;28;20188;-91
2023/09/07 07:25:05;;;;;;;11.20;10.10;;;;;;;;;;5032428;28;20192;-91
2023/09/07 07:27:36;;;;;;;11.93;10.57;;;;;;;;;;5032313;28;20280;-92
2023/09/07 07:30:06;;;;;;;11.80;10.60;;;;;;;;;;5032319;28;20275;-92
2023/09/07 07:32:57;;;;;;;12.77;10.50;;;;;;;;;;5008751;28;20204;-92
2023/09/07 07:35:39;;;;;;;12.27;10.97;;;;;;;;;;4996021;28;20235;-91
2023/09/07 07:38:07;;;;;;;14.10;10.67;;;;;;;;;;5015712;28;20192;-90
2023/09/07 07:40:44;;;;;;;12.67;10.40;;;;;;;;;;5020696;28;20208;-90
2023/09/07 07:43:13;;;;;;;11.73;10.50;;;;;;;;;;5024366;28;20185;-91
2023/09/07 07:46:00;;;;;;;11.43;10.43;;;;;;;;;;5022700;28;20203;-92
2023/09/07 07:48:36;;;;;;;11.73;10.53;;;;;;;;;;5036458;28;20237;-90
2023/09/07 07:51:11;;;;;;;12.97;10.00;;;;;;;;;;5028049;28;20188;-91
2023/09/07 07:53:46;;;;;;;12.47;11.20;;;;;;;;;;5011262;28;20234;-91
2023/09/07 07:56:38;;;;;;;10.97;9.93;;;;;;;;;;5017964;28;20270;-91
2023/09/07 07:59:25;;;;;;;13.97;10.17;;;;;;;;;;5019532;28;20191;-91
2023/09/07 08:04:42;;;;;;;12.53;11.23;;;;;;;;;;5000590;28;20221;-91
2023/09/07 08:07:45;;;;;;;11.87;10.70;;;;;;;;;;5016131;28;20194;-90
2023/09/07 08:10:24;;;;;;;;;;;;;;;;;;;;;
2023/09/07 08:12:56;;;;;;;11.70;10.60;;;;;;;;;;5017181;28;20213;-92
2023/09/07 08:15:24;;;;;;;11.93;9.97;;;;;;;;;;5014907;28;20186;-92
2023/09/07 08:17:57;;;;;;;11.47;10.33;;;;;;;;;;5015773;28;20190;-89
2023/09/07 08:20:26;;;;;;;12.17;10.83;;;;;;;;;;5015064;28;20182;-91
2023/09/07 08:22:52;;;;;;;11.40;10.27;;;;;;;;;;5015619;28;20427;-90
2023/09/07 08:25:20;;;;;;;12.13;10.33;;;;;;;;;;5015104;28;20193;-90
2023/09/07 08:27:49;;;;;;;12.53;10.73;;;;;;;;;;5013244;28;20423;-89
2023/09/07 08:30:17;;;;;;;12.77;10.63;;;;;;;;;;5015414;28;20182;-89
2023/09/07 08:32:44;;;;;;;12.40;11.23;;;;;;;;;;5017283;28;20235;-90
2023/09/07 08:35:13;;;;;;;13.57;10.63;;;;;;;;;;5026644;28;20181;-90
2023/09/07 08:37:40;;;;;;;12.40;11.20;;;;;;;;;;5015372;28;20184;-91
2023/09/07 08:40:16;;;;;;;10.87;9.90;;;;;;;;;;5014464;28;20200;-90
2023/09/07 08:43:01;;;;;;;13.00;9.70;;;;;;;;;;4998554;28;20215;-89
2023/09/07 08:45:33;;;;;;;10.95;9.85;;;;;;;;;;5013124;28;20193;-91
2023/09/07 08:48:02;;;;;;;11.40;10.40;;;;;;;;;;5015480;28;20265;-91
2023/09/07 08:50:37;;;;;;;9.32;8.43;;;;;;;;;;5018992;28;20180;-91
2023/09/07 08:53:08;;;;;;;11.25;9.00;;;;;;;;;;5014843;28;20237;-91
2023/09/07 08:55:34;;;;;;;13.38;9.52;;;;;;;;;;5015159;28;20215;-92
2023/09/07 08:58:32;;;;;;;9.68;8.60;;;;;;;;;;5013932;28;20320;-92
2023/09/07 09:00:59;;;;;;;9.40;7.93;;;;;;;;;;5009153;28;20190;-91
2023/09/07 09:03:29;;;;;;;9.98;8.05;;;;;;;;;;5011620;28;20213;-91
2023/09/07 09:06:07;;;;;;;9.52;8.68;;;;;;;;;;5029846;28;20194;-92
2023/09/07 09:09:08;;;;;;;11.50;7.93;;;;;;;;;;5032208;28;20180;-92
2023/09/07 09:11:54;;;;;;;10.65;8.45;;;;;;;;;;5015861;28;20220;-93
2023/09/07 09:14:22;;;;;;;10.85;9.00;;;;;;;;;;5014059;28;20192;-91
2023/09/07 09:16:52;;;;;;;12.95;10.02;;;;;;;;;;5027904;28;20189;-91
2023/09/07 09:22:24;;;;;;;15.23;8.38;;;;;;;;;;5014444;28;20208;-92
2023/09/07 09:25:08;;;;;;;12.45;8.02;;;;;;;;;;5034809;28;20180;-92
2023/09/07 09:27:40;;;;;;;12.73;7.60;;;;;;;;;;5031744;28;20183;-93
2023/09/07 09:30:16;;;;;;;10.10;7.47;;;;;;;;;;5014858;28;20213;-92
2023/09/07 09:32:50;;;;;;;14.05;8.10;;;;;;;;;;5030294;28;20264;-91
2023/09/07 09:35:20;;;;;;;8.80;7.25;;;;;;;;;;5014690;28;20188;-92
2023/09/07 09:37:49;;;;;;;8.18;6.75;;;;;;;;;;5013016;28;20181;-91
2023/09/07 09:40:47;;;;;;;13.98;7.07;;;;;;;;;;5014590;28;20177;-92
2023/09/07 09:43:21;;;;;;;6.85;5.85;;;;;;;;;;5015398;28;20177;-92
2023/09/07 09:45:52;;;;;;;8.13;5.90;;;;;;;;;;5011999;28;20181;-91
2023/09/07 09:51:17;;;;;;;7.35;5.95;;;;;;;;;;5006780;28;20182;-91
2023/09/07 09:53:49;;;;;;;6.15;5.43;;;;;;;;;;5013312;28;20201;-91
2023/09/07 09:56:26;;;;;;;6.75;5.30;;;;;;;;;;5001043;28;20185;-91
2023/09/07 09:59:06;;;;;;;6.72;5.43;;;;;;;;;;5024108;28;20246;-92
2023/09/07 10:01:46;;;;;;;7.30;5.32;;;;;;;;;;5008277;28;20185;-91
2023/09/07 10:04:35;;;;;;;5.72;4.50;;;;;;;;;;5023781;28;20180;-92
2023/09/07 10:07:35;;;;;;;7.00;4.60;;;;;;;;;;5000577;28;20195;-91
2023/09/07 10:09:56;;;;;;;5.68;4.20;;;;;;;;;;5017263;28;20189;-91
2023/09/07 10:12:27;;;;;;;5.72;4.20;;;;;;;;;;5020205;28;20240;-88
2023/09/07 10:15:03;;;;;;;6.03;4.20;;;;;;;;;;5032690;28;20225;-88
2023/09/07 10:17:35;;;;;;;5.43;4.00;;;;;;;;;;5015665;28;20184;-89
2023/09/07 10:20:24;;;;;;;6.85;4.22;;;;;;;;;;5022664;28;20177;-87
2023/09/07 10:22:59;;;;;;;4.63;4.22;;;;;;;;;;5010584;28;20199;-87
2023/09/07 10:25:33;;;;;;;4.70;4.30;;;;;;;;;;5027703;28;20215;-88
2023/09/07 10:27:59;;;;;;;4.88;3.75;;;;;;;;;;5033508;28;20181;-87
2023/09/07 10:30:38;;;;;;;4.07;3.70;;;;;;;;;;5029040;28;20184;-88
2023/09/07 10:33:07;;;;;;;7.35;4.20;;;;;;;;;;5013061;28;20205;-87
2023/09/07 10:35:42;;;;;;;5.43;4.35;;;;;;;;;;5012410;28;20184;-88
2023/09/07 10:38:16;;;;;;;10.32;4.78;;;;;;;;;;5016603;28;20168;-92
2023/09/07 10:44:19;;;;;;;4.95;4.30;;;;;;;;;;5014992;28;20179;-87
2023/09/07 10:46:53;;;;;;;6.97;4.25;;;;;;;;;;4992598;28;20196;-88
2023/09/07 10:49:33;;;;;;;6.53;4.15;;;;;;;;;;5021032;28;20188;-92
2023/09/07 10:52:01;;;;;;;4.55;4.07;;;;;;;;;;5007286;28;20271;-89
2023/09/07 10:54:36;;;;;;;6.18;3.97;;;;;;;;;;4981811;28;20204;-89
2023/09/07 10:57:09;;;;;;;5.95;4.15;;;;;;;;;;5013683;28;20176;-89
2023/09/07 10:59:44;;;;;;;4.93;3.70;;;;;;;;;;5013410;28;20177;-89
2023/09/07 11:02:14;;;;;;;6.45;3.55;;;;;;;;;;5012826;28;20226;-91
2023/09/07 11:04:49;;;;;;;6.70;4.18;;;;;;;;;;5013063;28;20239;-89
2023/09/07 11:07:22;;;;;;;5.70;3.83;;;;;;;;;;5012971;28;20281;-90
2023/09/07 11:09:52;;;;;;;6.30;3.85;;;;;;;;;;5013338;28;20235;-90
2023/09/07 11:12:42;;;;;;;4.90;3.97;;;;;;;;;;5013461;28;20300;-89
2023/09/07 11:15:14;;;;;;;6.82;4.28;;;;;;;;;;5013319;28;20181;-89
2023/09/07 11:17:41;;;;;;;5.40;3.90;;;;;;;;;;5012688;28;20188;-90
2023/09/07 11:20:13;;;;;;;4.35;3.95;;;;;;;;;;5013306;28;20184;-89
2023/09/07 11:22:39;;;;;;;5.43;4.15;;;;;;;;;;5011435;28;20192;-87
2023/09/07 11:25:18;;;;;;;8.18;4.22;;;;;;;;;;5010746;28;20184;-89
2023/09/07 11:28:04;;;;;;;5.85;4.00;;;;;;;;;;5008120;28;20189;-88
2023/09/07 11:33:51;;;;;;;;;;;;;;;;;;;;;
2023/09/07 11:39:40;;;;;;;6.40;4.05;;;;;;;;;;4933534;28;20190;-87
2023/09/07 11:48:36;;;;;;;;;;;;;;;;;;;;;
2023/09/07 12:00:41;;;;;;;4.25;3.72;;;;;;;;;;4951160;29;20245;-90
2023/09/07 12:03:30;;;;;;;5.93;3.65;;;;;;;;;;4980955;28;20218;-91
2023/09/07 12:09:24;;;;;;;5.75;4.00;;;;;;;;;;4938523;28;20197;-93
2023/09/07 12:11:53;;;;;;;4.05;3.72;;;;;;;;;;5001762;28;20217;-91
2023/09/07 12:17:14;;;;;;;6.45;4.10;;;;;;;;;;4991930;28;20178;-90
2023/09/07 12:19:51;;;;;;;4.78;3.92;;;;;;;;;;5012394;28;20193;-89
2023/09/07 12:25:10;;;;;;;6.55;3.63;;;;;;;;;;5009591;28;20186;-90
2023/09/07 12:27:45;;;;;;;5.05;4.10;;;;;;;;;;4999125;28;20212;-89
2023/09/07 12:30:21;;;;;;;6.68;4.18;;;;;;;;;;5016049;28;20184;-89
2023/09/07 12:32:48;;;;;;;4.70;3.92;;;;;;;;;;5014897;28;20431;-91
2023/09/07 12:35:20;;;;;;;4.30;3.90;;;;;;;;;;5016092;28;20169;-91
2023/09/07 12:37:52;;;;;;;7.35;4.00;;;;;;;;;;5014918;28;20192;-90
2023/09/07 12:40:39;;;;;;;4.97;4.20;;;;;;;;;;5001147;28;20303;-90
2023/09/07 12:43:08;;;;;;;4.93;4.22;;;;;;;;;;5000476;28;20272;-89
2023/09/07 12:45:54;;;;;;;6.28;4.22;;;;;;;;;;5004558;28;20169;-89
2023/09/07 12:48:27;;;;;;;4.40;4.00;;;;;;;;;;5005963;28;20264;-90
2023/09/07 12:51:06;;;;;;;5.38;3.70;;;;;;;;;;5014563;28;20193;-90
2023/09/07 12:53:43;;;;;;;6.45;4.40;;;;;;;;;;5015279;28;20204;-90
2023/09/07 12:56:15;;;;;;;6.50;4.10;;;;;;;;;;5015701;28;20181;-90
2023/09/07 12:59:02;;;;;;;4.57;3.95;;;;;;;;;;5014425;28;20196;-90
2023/09/07 13:01:37;;;;;;;5.97;4.38;;;;;;;;;;5001301;28;20196;-90
2023/09/07 13:04:11;;;;;;;8.35;4.45;;;;;;;;;;5034068;28;20221;-89
2023/09/07 13:06:40;;;;;;;7.95;4.25;;;;;;;;;;5008504;28;20270;-90
2023/09/07 13:09:15;;;;;;;4.30;3.92;;;;;;;;;;5020619;28;20188;-89
2023/09/07 13:11:50;;;;;;;7.13;4.10;;;;;;;;;;5021149;28;20208;-89
2023/09/07 13:14:19;;;;;;;5.18;4.10;;;;;;;;;;4999913;28;20188;-90
2023/09/07 13:16:45;;;;;;;4.78;3.80;;;;;;;;;;5015920;28;20184;-89
2023/09/07 13:19:19;;;;;;;5.45;4.32;;;;;;;;;;5018074;28;20421;-90
2023/09/07 13:21:48;;;;;;;6.22;4.38;;;;;;;;;;5012942;28;20524;-89
2023/09/07 13:24:17;;;;;;;5.25;4.43;;;;;;;;;;5012460;28;20431;-89
2023/09/07 13:27:13;;;;;;;4.75;4.20;;;;;;;;;;5017796;28;20409;-90
2023/09/07 13:29:46;;;;;;;5.03;4.55;;;;;;;;;;5024772;28;20915;-89
2023/09/07 13:32:18;;;;;;;5.03;4.25;;;;;;;;;;5025801;28;20468;-89
2023/09/07 13:34:50;;;;;;;4.90;4.40;;;;;;;;;;5001183;28;20417;-89
2023/09/07 13:37:19;;;;;;;8.93;4.40;;;;;;;;;;5016595;28;20477;-88
2023/09/07 13:39:50;;;;;;;5.30;4.78;;;;;;;;;;5011807;28;20423;-90
2023/09/07 13:42:17;;;;;;;5.07;4.40;;;;;;;;;;5027297;28;20429;-88
2023/09/07 13:44:47;;;;;;;7.30;4.57;;;;;;;;;;5011612;28;20462;-90
2023/09/07 13:47:13;;;;;;;7.13;4.57;;;;;;;;;;4998026;28;20437;-91
2023/09/07 13:49:39;;;;;;;7.28;4.47;;;;;;;;;;5024595;28;20204;-90
2023/09/07 13:54:57;;;;;;;6.30;4.85;;;;;;;;;;5034016;28;20417;-91
2023/09/07 13:57:23;;;;;;;5.53;4.78;;;;;;;;;;5024214;28;20421;-86
2023/09/07 13:59:53;;;;;;;5.55;4.80;;;;;;;;;;5028911;28;20422;-86
2023/09/07 14:02:19;;;;;;;6.90;4.93;;;;;;;;;;5029903;28;20436;-86
2023/09/07 14:04:45;;;;;;;5.43;4.85;;;;;;;;;;5033785;28;20448;-85
2023/09/07 14:07:11;;;;;;;8.55;5.00;;;;;;;;;;5016771;28;20405;-86
2023/09/07 14:09:40;;;;;;;8.13;5.05;;;;;;;;;;5033414;28;20397;-86
2023/09/07 14:12:06;;;;;;;6.78;5.20;;;;;;;;;;5031775;28;20508;-87
2023/09/07 14:14:32;;;;;;;6.37;4.50;;;;;;;;;;5033007;28;20409;-86
2023/09/07 14:17:02;;;;;;;5.22;4.78;;;;;;;;;;5032732;28;20409;-87
2023/09/07 14:19:31;;;;;;;8.13;4.80;;;;;;;;;;5032792;28;20405;-87
2023/09/07 14:22:00;;;;;;;5.82;5.00;;;;;;;;;;5032675;28;21137;-86
2023/09/07 14:24:26;;;;;;;5.30;4.80;;;;;;;;;;5032398;28;20416;-86
2023/09/07 14:26:52;;;;;;;6.43;4.75;;;;;;;;;;5032738;28;20455;-86
2023/09/07 14:29:21;;;;;;;9.57;4.93;;;;;;;;;;5032510;28;20446;-87
2023/09/07 14:31:47;;;;;;;10.40;5.22;;;;;;;;;;5029915;28;20431;-86
2023/09/07 14:34:15;;;;;;;6.65;5.45;;;;;;;;;;5012376;28;20407;-86
2023/09/07 14:36:44;;;;;;;11.50;5.88;;;;;;;;;;5003516;28;20428;-87
2023/09/07 14:39:12;;;;;;;9.03;8.10;;;;;;;;;;5031427;28;20498;-86
2023/09/07 14:41:41;;;;;;;7.25;5.30;;;;;;;;;;5030597;28;20499;-86
2023/09/07 14:44:08;;;;;;;6.57;4.80;;;;;;;;;;5032296;28;20429;-87
2023/09/07 14:46:34;;;;;;;6.05;4.80;;;;;;;;;;5032357;28;20406;-87
2023/09/07 14:49:02;;;;;;;7.45;4.80;;;;;;;;;;5032328;28;20413;-86
2023/09/07 14:51:29;;;;;;;6.22;4.80;;;;;;;;;;5032068;28;20429;-87
2023/09/07 14:53:55;;;;;;;5.68;4.80;;;;;;;;;;5031973;28;20401;-86
2023/09/07 14:56:21;;;;;;;6.70;5.03;;;;;;;;;;5032313;28;21218;-88
2023/09/07 14:58:49;;;;;;;5.40;4.90;;;;;;;;;;5032267;28;20406;-88
2023/09/07 15:01:15;;;;;;;5.70;4.82;;;;;;;;;;5032128;28;20417;-87
2023/09/07 15:03:42;;;;;;;7.07;5.88;;;;;;;;;;5031731;28;20437;-87
2023/09/07 15:06:12;;;;;;;8.40;5.07;;;;;;;;;;5031906;28;20496;-86
2023/09/07 15:08:38;;;;;;;5.87;4.70;;;;;;;;;;5032134;28;20404;-86
2023/09/07 15:11:04;;;;;;;7.18;5.00;;;;;;;;;;5015570;28;20406;-87
2023/09/07 15:13:33;;;;;;;6.70;5.00;;;;;;;;;;5031785;28;20464;-87
2023/09/07 15:15:59;;;;;;;7.72;5.00;;;;;;;;;;5031770;28;20405;-86
2023/09/07 15:18:28;;;;;;;5.03;4.53;;;;;;;;;;5032076;28;20456;-87
2023/09/07 15:20:54;;;;;;;6.10;4.70;;;;;;;;;;5031730;28;20406;-85
2023/09/07 15:23:20;;;;;;;5.68;4.90;;;;;;;;;;5031874;28;20446;-87
2023/09/07 15:25:46;;;;;;;7.38;5.10;;;;;;;;;;5015237;28;20429;-86
2023/09/07 15:28:13;;;;;;;5.30;4.80;;;;;;;;;;5030868;28;20433;-87
2023/09/07 15:30:39;;;;;;;5.88;4.85;;;;;;;;;;5023694;28;20429;-86
2023/09/07 15:33:05;;;;;;;6.35;4.90;;;;;;;;;;5014765;28;20444;-86
2023/09/07 15:35:31;;;;;;;7.93;5.10;;;;;;;;;;5015884;28;20425;-86
2023/09/07 15:37:57;;;;;;;6.30;4.80;;;;;;;;;;5011618;28;20413;-86
2023/09/07 15:40:26;;;;;;;8.23;5.07;;;;;;;;;;5002503;28;20410;-87
2023/09/07 15:42:55;;;;;;;6.25;4.95;;;;;;;;;;4996060;28;20411;-86
2023/09/07 15:45:21;;;;;;;5.93;5.07;;;;;;;;;;4996200;28;20415;-86
2023/09/07 15:47:47;;;;;;;6.80;4.93;;;;;;;;;;5009519;28;20425;-86
2023/09/07 15:50:13;;;;;;;5.57;5.07;;;;;;;;;;5015074;28;20499;-86
2023/09/07 15:52:49;;;;;;;5.68;5.18;;;;;;;;;;5014784;28;20475;-87
2023/09/07 15:55:17;;;;;;;6.05;5.10;;;;;;;;;;5019767;28;20402;-86
2023/09/07 15:57:44;;;;;;;6.40;4.93;;;;;;;;;;5027669;28;20428;-86
2023/09/07 16:00:15;;;;;;;5.60;5.10;;;;;;;;;;5035771;28;20556;-87